Pagrindinis puslapis
METAR-TAF:

METAR-TAF

Oro uostai :

Schleswig-Jagel, Vokietija

platuma: 54-28N, ilguma: 009-31E, Aukštis: 22 m

Dabartinis oras

Ataskaita buvo paskelbta 1 valandą ir 10 minutes, ne 08:20 UTC
Vėjas 9 kt iš Vakarų
Temperatūra 14°C
Drėgmė 88%
Slėgis 1027 hPa
Matomumas 10 km arba daugiau
Mažai debesys ne aukštis 2000 ft
Su prošvaistėmis ne aukštis 4500 ft

METAR: ETNS 200820Z 27009KT 9999 FEW020 BKN045 14/12 Q1027 BLU BLU TEMPO GRN

Laikas: 11:30 (09:30 UTC)

Prognozė

Ataskaita buvo paskelbta 2 valandos ir 5 minutes, ne 07:25 UTC
Prognozė galioja nuo 20 metu 08 UTC su 20 metu 17 UTC
Vėjas 8 kt iš Vakarų/Pietvakarių
Matomumas 10 km arba daugiau
Išsisklaidę debesys ne aukštis 1200 ft
Su prošvaistėmis ne aukštis 2500 ft
Laikinai
nuo 20 metu 08 UTC su 20 metu 12 UTC
Vėjas 12 kt iš Vakarų
Matomumas: 4000 m
Su prošvaistėmis ne aukštis 1000 ft
lietus, dulksna

TAF: ETNS 200725Z 2008/2017 25008KT 9999 NSW SCT012 BKN025 TEMPO 2008/2012 27012KT 4000 -RADZ BKN010 BY ETGL

Orai ataskaitas ir orų prognozės (METAR, TAF).

turimą stotys yra geltonos ir raudonos taškus žemėlapyje.

Perkelti pele per norėdami pamatyti stoties vardą.

Tada spustelėkite, norėdami matyti oro stebėjimo ir prognozės.

Norėdami pakeisti žemėlapį: spustelėkite ant žalios mygtukų su juodo kryžiaus žemyn,; žalią mygtuką su brūkšneliu, jei norite nutolinti; arba žalių rodyklių gretimoms žemėlapius.


METAR-TAF: